Time;durP1;ratioP1;P1;durP2;ratioP2;P2;SDS_P1;SDS_P2;PMS_P1;PMS_P2;Temp;Humidity;BMP_temperature;BMP_pressure;BME280_temperature;BME280_humidity;BME280_pressure;Samples;Min_cycle;Max_cycle;Signal;HPM_P1;HPM_P2
2023/04/19 00:02:12;;;;;;;;;;;;;;;16.28;50.77;100116.61;108158;1284;21948;-63
2023/04/19 00:04:37;;;;;;;;;;;;;;;16.26;50.85;100118.47;107451;1285;1002196;-65
2023/04/19 00:07:06;;;;;;;;;;;;;;;16.25;50.84;100115.68;108242;1285;22001;-65
2023/04/19 00:09:32;;;;;;;;;;;;;;;16.24;50.94;100112.88;108318;1285;21964;-65
2023/04/19 00:11:57;;;;;;;;;;;;;;;16.22;50.96;100111.19;108256;1283;22061;-64
2023/04/19 00:14:23;;;;;;;;;;;;;;;16.20;51.03;100114.81;108148;1285;21993;-64
2023/04/19 00:16:48;;;;;;;;;;;;;;;16.18;51.19;100115.92;108164;1284;21968;-65
2023/04/19 00:19:14;;;;;;;;;;;;;;;16.16;51.07;100113.20;108276;1285;21988;-65
2023/04/19 00:21:39;;;;;;;;;;;;;;;16.11;50.94;100111.27;108222;1285;21965;-65
2023/04/19 00:24:05;;;;;;;;;;;;;;;16.05;50.93;100112.02;108149;1285;21953;-65
2023/04/19 00:26:31;;;;;;;;;;;;;;;16.01;50.94;100110.58;108114;1285;21967;-65
2023/04/19 00:28:56;;;;;;;;;;;;;;;15.99;50.94;100113.15;108286;1285;21967;-64
2023/04/19 00:31:22;;;;;;;;;;;;;;;15.99;51.12;100114.73;108233;1284;21966;-65
2023/04/19 00:33:47;;;;;;;;;;;;;;;16.02;51.20;100117.98;108276;1285;21967;-65
2023/04/19 00:36:13;;;;;;;;;;;;;;;16.07;51.17;100117.61;107454;1284;1002916;-65
2023/04/19 00:38:38;;;;;;;;;;;;;;;16.11;51.14;100115.17;108221;1285;22005;-64
2023/04/19 00:41:04;;;;;;;;;;;;;;;16.11;51.01;100117.84;108265;1284;21965;-64
2023/04/19 00:43:29;;;;;;;;;;;;;;;16.08;50.93;100113.00;108254;1284;21965;-65
2023/04/19 00:45:55;;;;;;;;;;;;;;;16.00;50.78;100113.63;108208;1285;21972;-65
2023/04/19 00:48:20;;;;;;;;;;;;;;;15.93;50.84;100109.50;106782;1285;1002464;-65
2023/04/19 00:50:46;;;;;;;;;;;;;;;15.84;50.71;100104.16;108242;1285;21968;-65
2023/04/19 00:53:11;;;;;;;;;;;;;;;15.73;50.50;100101.54;108315;1284;22444;-65
2023/04/19 00:55:37;;;;;;;;;;;;;;;15.61;50.34;100098.09;108317;1285;21966;-65
2023/04/19 00:58:04;;;;;;;;;;;;;;;15.51;50.45;100094.25;108246;1285;22437;-65
2023/04/19 01:00:30;;;;;;;;;;;;;;;15.41;50.56;100094.42;108215;1284;22112;-65
2023/04/19 01:02:55;;;;;;;;;;;;;;;15.33;50.82;100091.34;108184;1285;21969;-64
2023/04/19 01:05:21;;;;;;;;;;;;;;;15.28;51.07;100087.65;108163;1284;21970;-64
2023/04/19 01:07:46;;;;;;;;;;;;;;;15.26;51.38;100082.08;108229;1284;21961;-64
2023/04/19 01:10:12;;;;;;;;;;;;;;;15.25;51.61;100078.20;108150;1285;22002;-64
2023/04/19 01:12:37;;;;;;;;;;;;;;;15.24;51.73;100074.70;108152;1285;22001;-64
2023/04/19 01:15:03;;;;;;;;;;;;;;;15.24;51.80;100072.05;108155;1285;21964;-62
2023/04/19 01:17:30;;;;;;;;;;;;;;;15.25;52.01;100073.26;108219;1285;21952;-64
2023/04/19 01:20:02;;;;;;;;;;;;;;;15.25;52.08;100071.48;108285;1285;21976;-64
2023/04/19 01:22:29;;;;;;;;;;;;;;;15.26;52.14;100069.69;108300;1284;21966;-64
2023/04/19 01:24:56;;;;;;;;;;;;;;;15.27;52.29;100069.64;108220;1285;21979;-64
2023/04/19 01:27:22;;;;;;;;;;;;;;;15.29;52.35;100059.52;108265;1285;21968;-64
2023/04/19 01:29:48;;;;;;;;;;;;;;;15.29;52.33;100057.36;108252;1285;21972;-64
2023/04/19 01:32:16;;;;;;;;;;;;;;;15.33;52.34;100055.67;108252;1285;21972;-64
2023/04/19 01:34:41;;;;;;;;;;;;;;;15.33;52.26;100053.17;108148;1285;21998;-64
2023/04/19 01:37:07;;;;;;;;;;;;;;;15.31;52.32;100051.83;108170;1285;22457;-64
2023/04/19 01:39:34;;;;;;;;;;;;;;;15.31;52.35;100047.23;108147;1285;21967;-64
2023/04/19 01:42:00;;;;;;;;;;;;;;;15.33;52.45;100046.65;108137;1285;21977;-64
2023/04/19 01:44:25;;;;;;;;;;;;;;;15.33;52.62;100041.85;108265;1285;21972;-64
2023/04/19 01:46:51;;;;;;;;;;;;;;;15.34;52.74;100035.29;108238;1285;21982;-64
2023/04/19 01:49:17;;;;;;;;;;;;;;;15.40;52.93;100034.55;108168;1285;21969;-64
2023/04/19 01:51:42;;;;;;;;;;;;;;;15.43;52.97;100032.66;108160;1285;21970;-64
2023/04/19 01:54:08;;;;;;;;;;;;;;;15.43;53.03;100033.89;106671;1285;1002552;-64
2023/04/19 01:56:34;;;;;;;;;;;;;;;15.43;53.16;100034.58;108179;1285;21985;-65
2023/04/19 01:58:59;;;;;;;;;;;;;;;15.44;53.32;100036.17;108179;1285;21967;-64
2023/04/19 02:01:25;;;;;;;;;;;;;;;15.45;53.46;100031.34;108202;1285;21968;-64
2023/04/19 02:03:51;;;;;;;;;;;;;;;15.46;53.39;100024.77;108311;1284;21973;-64
2023/04/19 02:06:16;;;;;;;;;;;;;;;15.45;53.51;100025.52;108181;1285;22006;-64
2023/04/19 02:08:42;;;;;;;;;;;;;;;15.41;53.44;100025.48;108116;1285;22447;-65
2023/04/19 02:11:08;;;;;;;;;;;;;;;15.40;53.48;100023.06;108146;1285;21964;-64
2023/04/19 02:13:34;;;;;;;;;;;;;;;15.40;53.77;100020.42;108148;1285;21966;-64
2023/04/19 02:16:02;;;;;;;;;;;;;;;15.39;53.86;100023.27;108175;1285;21968;-64
2023/04/19 02:18:30;;;;;;;;;;;;;;;15.39;53.90;100020.09;108259;1285;23637;-64
2023/04/19 02:20:57;;;;;;;;;;;;;;;15.40;53.92;100020.54;108215;1285;23440;-64
2023/04/19 02:23:23;;;;;;;;;;;;;;;15.45;53.97;100019.86;108160;1284;21981;-65
2023/04/19 02:25:49;;;;;;;;;;;;;;;15.48;54.01;100015.67;108156;1285;21971;-64
2023/04/19 02:28:15;;;;;;;;;;;;;;;15.50;54.07;100012.23;108255;1285;21966;-64
2023/04/19 02:30:41;;;;;;;;;;;;;;;15.53;54.03;100011.40;108209;1284;21969;-63
2023/04/19 02:33:08;;;;;;;;;;;;;;;15.56;54.02;100005.10;108184;1285;21987;-64
2023/04/19 02:35:34;;;;;;;;;;;;;;;15.59;54.05;100002.15;108166;1285;22094;-64
2023/04/19 02:38:01;;;;;;;;;;;;;;;15.63;54.15;99999.91;108158;1285;22430;-64
2023/04/19 02:40:26;;;;;;;;;;;;;;;15.69;53.95;100002.84;108246;1284;22442;-64
2023/04/19 02:42:52;;;;;;;;;;;;;;;15.71;53.96;100004.19;108204;1284;21982;-64
2023/04/19 02:45:17;;;;;;;;;;;;;;;15.67;54.18;100005.73;108118;1284;21978;-66
2023/04/19 02:47:45;;;;;;;;;;;;;;;15.68;54.15;100007.66;108118;1282;22742;-64
2023/04/19 02:50:11;;;;;;;;;;;;;;;15.70;54.25;100009.14;108137;1283;21977;-63
2023/04/19 02:52:37;;;;;;;;;;;;;;;15.73;54.27;100010.11;108140;1285;22000;-64
2023/04/19 02:55:03;;;;;;;;;;;;;;;15.76;54.21;100007.14;108172;1285;22433;-63
2023/04/19 02:57:29;;;;;;;;;;;;;;;15.78;54.35;99999.83;108164;1285;22008;-64
2023/04/19 02:59:55;;;;;;;;;;;;;;;15.79;54.30;99997.33;108105;1285;21967;-63
2023/04/19 03:02:20;;;;;;;;;;;;;;;15.78;54.28;99997.16;108186;1285;21967;-63
2023/04/19 03:04:46;;;;;;;;;;;;;;;15.77;54.24;99992.98;108119;1285;21967;-63
2023/04/19 03:07:15;;;;;;;;;;;;;;;15.69;54.17;99985.84;108110;1285;21967;-64
2023/04/19 03:09:41;;;;;;;;;;;;;;;15.62;54.25;99982.94;108280;1285;21954;-64
2023/04/19 03:12:06;;;;;;;;;;;;;;;15.57;54.24;99983.30;108182;1285;21971;-64
2023/04/19 03:14:33;;;;;;;;;;;;;;;15.55;54.40;99979.66;108150;1285;22151;-64
2023/04/19 03:16:59;;;;;;;;;;;;;;;15.57;54.77;99972.90;108222;1285;21966;-64
2023/04/19 03:19:24;;;;;;;;;;;;;;;15.56;54.82;99970.80;108151;1285;21972;-64
2023/04/19 03:21:50;;;;;;;;;;;;;;;15.60;54.82;99970.13;108162;1285;21969;-64
2023/04/19 03:24:17;;;;;;;;;;;;;;;15.63;54.95;99966.29;108124;1283;23612;-64
2023/04/19 03:26:43;;;;;;;;;;;;;;;15.63;55.07;99960.10;108102;1285;22032;-64
2023/04/19 03:29:08;;;;;;;;;;;;;;;15.60;55.17;99961.95;108249;1284;22008;-64
2023/04/19 03:31:34;;;;;;;;;;;;;;;15.60;55.49;99961.63;108169;1282;21974;-64
2023/04/19 03:34:00;;;;;;;;;;;;;;;15.67;55.51;99967.20;108150;1285;21967;-63
2023/04/19 03:36:25;;;;;;;;;;;;;;;15.71;55.63;99974.10;108220;1285;21968;-64
2023/04/19 03:38:54;;;;;;;;;;;;;;;15.69;55.94;99980.02;108252;1285;21969;-63
2023/04/19 03:41:23;;;;;;;;;;;;;;;15.72;56.04;99980.77;108171;1285;21976;-65
2023/04/19 03:43:49;;;;;;;;;;;;;;;15.78;56.03;99978.25;108161;1285;21987;-62
2023/04/19 03:46:14;;;;;;;;;;;;;;;15.81;55.98;99979.38;108153;1285;23077;-64
2023/04/19 03:48:40;;;;;;;;;;;;;;;15.83;55.72;99980.17;108158;1284;21972;-65
2023/04/19 03:51:05;;;;;;;;;;;;;;;15.85;55.94;99979.21;108207;1285;21952;-62
2023/04/19 03:53:32;;;;;;;;;;;;;;;15.86;56.00;99982.72;108179;1285;21967;-64
2023/04/19 03:55:57;;;;;;;;;;;;;;;15.87;56.02;99985.52;108200;1284;21969;-65
2023/04/19 03:58:23;;;;;;;;;;;;;;;15.92;56.23;99983.18;108144;1285;21968;-62
2023/04/19 04:00:49;;;;;;;;;;;;;;;15.98;56.53;99977.65;108168;1280;21969;-63
2023/04/19 04:03:15;;;;;;;;;;;;;;;16.05;57.06;99970.83;108151;1285;22858;-66
2023/04/19 04:05:41;;;;;;;;;;;;;;;16.14;57.03;99967.59;108212;1284;22007;-65
2023/04/19 04:08:06;;;;;;;;;;;;;;;16.23;57.16;99965.66;108177;1285;21961;-66
2023/04/19 04:10:32;;;;;;;;;;;;;;;16.29;57.76;99966.44;108152;1284;21971;-63
2023/04/19 04:12:57;;;;;;;;;;;;;;;16.34;57.50;99964.99;108172;1285;22941;-65
2023/04/19 04:15:23;;;;;;;;;;;;;;;16.40;57.55;99964.41;108139;1285;21977;-63
2023/04/19 04:17:49;;;;;;;;;;;;;;;16.42;57.67;99966.24;108150;1285;21977;-63
2023/04/19 04:20:15;;;;;;;;;;;;;;;16.38;57.73;99968.70;108156;1285;22433;-65
2023/04/19 04:22:45;;;;;;;;;;;;;;;16.38;57.58;99968.73;108182;1285;22005;-63
2023/04/19 04:25:11;;;;;;;;;;;;;;;16.37;57.39;99962.91;108165;1285;21971;-65
2023/04/19 04:27:38;;;;;;;;;;;;;;;16.35;57.68;99965.63;108148;1285;23052;-64
2023/04/19 04:30:05;;;;;;;;;;;;;;;16.31;57.51;99963.36;108218;1285;21967;-65
2023/04/19 04:32:34;;;;;;;;;;;;;;;16.31;57.83;99960.70;108213;1284;22438;-63
2023/04/19 04:35:09;;;;;;;;;;;;;;;16.30;57.78;99963.03;108191;1285;24309;-63
2023/04/19 04:37:35;;;;;;;;;;;;;;;16.29;57.62;99961.16;108228;1285;21968;-65
2023/04/19 04:40:03;;;;;;;;;;;;;;;16.28;57.56;99961.90;108242;1285;21968;-65
2023/04/19 04:42:30;;;;;;;;;;;;;;;16.28;57.52;99960.66;108224;1285;23696;-65
2023/04/19 04:44:56;;;;;;;;;;;;;;;16.31;57.63;99952.92;108172;1285;22432;-63
2023/04/19 04:47:22;;;;;;;;;;;;;;;16.37;57.82;99958.30;108214;1284;23624;-63
2023/04/19 04:49:48;;;;;;;;;;;;;;;16.45;58.18;99957.44;108163;1285;21977;-65
2023/04/19 04:52:14;;;;;;;;;;;;;;;16.57;58.36;99956.23;108132;1284;21967;-65
2023/04/19 04:54:39;;;;;;;;;;;;;;;16.65;58.57;99954.09;108217;1284;22000;-64
2023/04/19 04:57:05;;;;;;;;;;;;;;;16.71;58.46;99952.61;108201;1284;21973;-66
2023/04/19 04:59:32;;;;;;;;;;;;;;;16.77;59.17;99954.80;108265;1285;21987;-65
2023/04/19 05:01:57;;;;;;;;;;;;;;;16.85;59.12;99957.48;108208;1285;21956;-65
2023/04/19 05:04:23;;;;;;;;;;;;;;;16.92;58.89;99955.55;108180;1285;21957;-65
2023/04/19 05:06:49;;;;;;;;;;;;;;;17.02;58.53;99949.45;108148;1284;22081;-66
2023/04/19 05:09:14;;;;;;;;;;;;;;;17.10;58.22;99947.68;108234;1285;21986;-62
2023/04/19 05:11:40;;;;;;;;;;;;;;;17.17;58.33;99941.51;108205;1277;21978;-65
2023/04/19 05:14:05;;;;;;;;;;;;;;;17.25;58.55;99940.08;108204;1285;21968;-65
2023/04/19 05:16:32;;;;;;;;;;;;;;;17.34;58.66;99938.94;108244;1285;21988;-65
2023/04/19 05:18:58;;;;;;;;;;;;;;;17.39;58.29;99934.80;108272;1285;21980;-65
2023/04/19 05:21:23;;;;;;;;;;;;;;;17.44;58.25;99932.10;108113;1285;22060;-63
2023/04/19 05:23:52;;;;;;;;;;;;;;;17.52;58.79;99932.58;108126;1285;21965;-63
2023/04/19 05:26:18;;;;;;;;;;;;;;;17.63;58.58;99927.60;108163;1285;23615;-66
2023/04/19 05:28:43;;;;;;;;;;;;;;;17.75;58.85;99922.23;108200;1285;22004;-65
2023/04/19 05:31:09;;;;;;;;;;;;;;;17.91;59.09;99920.59;108200;1285;22007;-64
2023/04/19 05:33:36;;;;;;;;;;;;;;;18.09;59.36;99924.48;108283;1285;21993;-64
2023/04/19 05:36:01;;;;;;;;;;;;;;;18.25;59.02;99925.10;108052;1285;21969;-66
2023/04/19 05:38:27;;;;;;;;;;;;;;;18.37;58.56;99927.16;108012;1285;21982;-65
2023/04/19 05:40:53;;;;;;;;;;;;;;;18.49;58.28;99926.70;108049;1284;22018;-66
2023/04/19 05:43:19;;;;;;;;;;;;;;;18.60;58.10;99925.42;108046;1286;21980;-64
2023/04/19 05:45:45;;;;;;;;;;;;;;;18.66;57.81;99928.83;108050;1285;23658;-65
2023/04/19 05:48:10;;;;;;;;;;;;;;;18.75;57.67;99926.45;108678;1280;21987;-65
2023/04/19 05:50:36;;;;;;;;;;;;;;;18.82;57.69;99923.20;108130;1286;23594;-66
2023/04/19 05:53:02;;;;;;;;;;;;;;;18.91;57.68;99918.83;108113;1285;21977;-64
2023/04/19 05:55:28;;;;;;;;;;;;;;;18.97;57.72;99913.49;108111;1286;21973;-66
2023/04/19 05:57:53;;;;;;;;;;;;;;;19.08;57.35;99913.69;108106;1285;21971;-65
2023/04/19 06:00:21;;;;;;;;;;;;;;;19.18;57.25;99911.89;108085;1286;21974;-66
2023/04/19 06:02:47;;;;;;;;;;;;;;;19.26;56.92;99914.98;108128;1285;21965;-63
2023/04/19 06:05:12;;;;;;;;;;;;;;;19.35;56.64;99912.35;108186;1286;21955;-64
2023/04/19 06:07:38;;;;;;;;;;;;;;;19.45;56.92;99906.98;108120;1286;21975;-64
2023/04/19 06:10:04;;;;;;;;;;;;;;;19.56;56.89;99905.28;108077;1286;21966;-64
2023/04/19 06:12:30;;;;;;;;;;;;;;;19.71;56.90;99902.13;108079;1285;21970;-65
2023/04/19 06:14:56;;;;;;;;;;;;;;;19.87;56.89;99898.52;108165;1286;21969;-64
2023/04/19 06:17:23;;;;;;;;;;;;;;;20.06;56.99;99896.20;108231;1286;22008;-64
2023/04/19 06:19:52;;;;;;;;;;;;;;;20.29;57.69;99896.39;108129;1286;22526;-65
2023/04/19 06:22:18;;;;;;;;;;;;;;;20.64;58.19;99894.67;108150;1286;21978;-64
2023/04/19 06:24:44;;;;;;;;;;;;;;;21.04;58.01;99895.41;108151;1286;22007;-65
2023/04/19 06:27:10;;;;;;;;;;;;;;;21.38;57.20;99898.60;108167;1286;21974;-63
2023/04/19 06:29:36;;;;;;;;;;;;;;;21.67;56.38;99900.30;108215;1286;21981;-66
2023/04/19 06:32:01;;;;;;;;;;;;;;;21.96;56.46;99895.14;108135;1286;21981;-62
2023/04/19 06:34:27;;;;;;;;;;;;;;;22.27;56.00;99896.06;108154;1285;21972;-64
2023/04/19 06:36:52;;;;;;;;;;;;;;;22.53;54.77;99892.56;108133;1285;21967;-64
2023/04/19 06:39:18;;;;;;;;;;;;;;;22.66;53.53;99893.61;108189;1285;21978;-64
2023/04/19 06:41:43;;;;;;;;;;;;;;;22.70;52.62;99894.55;108159;1285;21970;-63
2023/04/19 06:44:10;;;;;;;;;;;;;;;22.69;52.04;99896.08;108173;1285;21999;-63
2023/04/19 06:46:36;;;;;;;;;;;;;;;22.67;52.12;99896.01;108235;1285;21972;-63
2023/04/19 06:49:01;;;;;;;;;;;;;;;22.66;51.36;99895.90;108281;1285;21971;-64
2023/04/19 06:51:27;;;;;;;;;;;;;;;22.66;50.92;99899.70;108139;1285;21987;-65
2023/04/19 06:53:53;;;;;;;;;;;;;;;22.66;50.71;99899.35;108106;1285;21988;-64
2023/04/19 06:56:21;;;;;;;;;;;;;;;22.65;50.48;99893.14;108091;1285;22007;-64
2023/04/19 06:58:47;;;;;;;;;;;;;;;22.58;50.07;99891.84;108152;1285;22147;-64
2023/04/19 07:01:12;;;;;;;;;;;;;;;22.57;50.56;99894.21;108201;1285;21961;-63
2023/04/19 07:03:38;;;;;;;;;;;;;;;22.70;51.39;99897.10;108138;1285;24288;-64
2023/04/19 07:06:04;;;;;;;;;;;;;;;22.96;52.19;99900.27;108149;1285;21967;-64
2023/04/19 07:08:30;;;;;;;;;;;;;;;23.33;52.35;99901.18;108167;1285;21972;-64
2023/04/19 07:10:55;;;;;;;;;;;;;;;23.68;51.56;99905.80;108177;1285;21984;-64
2023/04/19 07:13:21;;;;;;;;;;;;;;;23.97;50.85;99909.02;108228;1285;21982;-64
2023/04/19 07:15:47;;;;;;;;;;;;;;;24.16;50.26;99903.27;108163;1285;22005;-65
2023/04/19 07:18:14;;;;;;;;;;;;;;;24.26;49.21;99909.16;108066;1285;21968;-64
2023/04/19 07:20:43;;;;;;;;;;;;;;;24.30;48.44;99912.80;108175;1285;22007;-64
2023/04/19 07:23:10;;;;;;;;;;;;;;;24.22;48.36;99921.13;108288;1284;23683;-64
2023/04/19 07:25:36;;;;;;;;;;;;;;;24.20;48.16;99920.20;108295;1285;21982;-64
2023/04/19 07:28:01;;;;;;;;;;;;;;;24.20;47.65;99922.13;108261;1285;23593;-64
2023/04/19 07:30:27;;;;;;;;;;;;;;;24.18;47.46;99925.56;108196;1284;22140;-62
2023/04/19 07:32:52;;;;;;;;;;;;;;;24.18;47.54;99927.52;108162;1285;21972;-64
2023/04/19 07:35:18;;;;;;;;;;;;;;;24.26;47.88;99926.90;108187;1285;23731;-64
2023/04/19 07:37:44;;;;;;;;;;;;;;;24.44;48.12;99933.36;108249;1285;21993;-64
2023/04/19 07:40:10;;;;;;;;;;;;;;;24.65;47.61;99932.69;108135;1284;21969;-63
2023/04/19 07:42:35;;;;;;;;;;;;;;;24.81;47.50;99931.80;108217;1285;23638;-65
2023/04/19 07:45:01;;;;;;;;;;;;;;;24.93;46.99;99932.64;108188;1285;23758;-63
2023/04/19 07:47:26;;;;;;;;;;;;;;;24.99;46.58;99935.27;108086;1284;23695;-64
2023/04/19 07:49:52;;;;;;;;;;;;;;;25.02;46.70;99936.95;109294;1284;24216;-65
2023/04/19 07:52:17;;;;;;;;;;;;;;;25.04;46.40;99935.21;108054;1284;21973;-64
2023/04/19 07:54:43;;;;;;;;;;;;;;;25.00;45.54;99935.86;108041;1285;24428;-64
2023/04/19 07:57:09;;;;;;;;;;;;;;;24.84;45.64;99936.81;110150;1285;21957;-65
2023/04/19 07:59:34;;;;;;;;;;;;;;;24.72;45.73;99935.74;109630;1285;21969;-64
2023/04/19 08:02:00;;;;;;;;;;;;;;;24.61;45.87;99936.20;108141;1285;23618;-64
2023/04/19 08:04:25;;;;;;;;;;;;;;;24.50;45.88;99940.70;108157;1285;21964;-63
2023/04/19 08:06:51;;;;;;;;;;;;;;;24.39;45.86;99938.80;108162;1285;21971;-64
2023/04/19 08:09:17;;;;;;;;;;;;;;;24.30;45.92;99935.76;108146;1285;21970;-63
2023/04/19 08:11:43;;;;;;;;;;;;;;;24.19;45.98;99938.34;108176;1285;21979;-64
2023/04/19 08:14:08;;;;;;;;;;;;;;;24.11;46.10;99940.56;108123;1285;21963;-64
2023/04/19 08:16:34;;;;;;;;;;;;;;;24.04;45.99;99939.00;108167;1285;21988;-65
2023/04/19 08:19:00;;;;;;;;;;;;;;;23.93;45.99;99939.02;108089;1285;21977;-66
2023/04/19 08:21:25;;;;;;;;;;;;;;;23.82;46.10;99941.48;108209;1285;21980;-65
2023/04/19 08:23:51;;;;;;;;;;;;;;;23.73;46.07;99940.17;108116;1285;22061;-64
2023/04/19 08:26:17;;;;;;;;;;;;;;;23.60;46.28;99943.46;108204;1285;21978;-65
2023/04/19 08:28:42;;;;;;;;;;;;;;;23.52;46.60;99943.70;108134;1285;21979;-64
2023/04/19 08:31:08;;;;;;;;;;;;;;;23.49;46.59;99938.56;108161;1285;21992;-64
2023/04/19 08:33:34;;;;;;;;;;;;;;;23.47;46.43;99940.63;108168;1283;21976;-66
2023/04/19 08:36:01;;;;;;;;;;;;;;;23.45;46.65;99937.92;108327;1283;21972;-66
2023/04/19 08:38:27;;;;;;;;;;;;;;;23.42;46.76;99937.81;108219;1284;21936;-64
2023/04/19 08:40:53;;;;;;;;;;;;;;;23.37;46.78;99938.16;108258;1285;22403;-65
2023/04/19 08:43:20;;;;;;;;;;;;;;;23.30;46.77;99941.71;108167;1285;21976;-64
2023/04/19 08:45:49;;;;;;;;;;;;;;;23.20;46.76;99936.84;108106;1284;23654;-66
2023/04/19 08:48:14;;;;;;;;;;;;;;;23.09;46.68;99938.36;108173;1284;21977;-64
2023/04/19 08:50:40;;;;;;;;;;;;;;;22.97;46.68;99939.73;108074;1284;21974;-66
2023/04/19 08:53:06;;;;;;;;;;;;;;;22.85;46.62;99938.23;108180;1285;1002293;-65
2023/04/19 08:55:32;;;;;;;;;;;;;;;22.72;46.77;99942.02;108177;1285;21980;-66
2023/04/19 08:57:58;;;;;;;;;;;;;;;22.57;47.18;99941.63;108198;1284;21971;-68
2023/04/19 09:00:23;;;;;;;;;;;;;;;22.41;47.32;99940.86;108263;1285;21983;-67
2023/04/19 09:02:50;;;;;;;;;;;;;;;22.26;47.61;99939.80;108105;1285;23613;-67
2023/04/19 09:05:16;;;;;;;;;;;;;;;22.08;47.83;99946.13;108193;1284;21987;-69
2023/04/19 09:07:42;;;;;;;;;;;;;;;21.93;48.13;99950.92;108181;1285;22433;-67
2023/04/19 09:10:08;;;;;;;;;;;;;;;21.79;48.11;99953.48;108167;1285;21977;-68
2023/04/19 09:12:34;;;;;;;;;;;;;;;21.65;48.29;99953.61;108086;1283;22260;-67
2023/04/19 09:15:02;;;;;;;;;;;;;;;21.54;48.54;99956.26;108203;1285;21967;-68
2023/04/19 09:17:28;;;;;;;;;;;;;;;21.43;48.86;99955.92;108202;1285;21979;-65
2023/04/19 09:19:53;;;;;;;;;;;;;;;21.35;49.05;99958.37;108212;1285;21992;-66
2023/04/19 09:22:19;;;;;;;;;;;;;;;21.26;49.23;99958.73;108167;1281;21967;-67
2023/04/19 09:24:44;;;;;;;;;;;;;;;21.19;49.61;99957.24;108071;1285;21977;-67
2023/04/19 09:27:11;;;;;;;;;;;;;;;21.09;49.60;99956.24;108096;1284;21966;-68
2023/04/19 09:29:37;;;;;;;;;;;;;;;21.00;49.83;99957.52;108252;1285;22064;-68
2023/04/19 09:32:03;;;;;;;;;;;;;;;20.93;49.92;99957.61;108159;1283;22024;-66
2023/04/19 09:34:29;;;;;;;;;;;;;;;20.88;50.07;99955.45;108118;1281;23696;-67
2023/04/19 09:36:55;;;;;;;;;;;;;;;20.84;50.25;99954.23;108158;1285;22035;-68
2023/04/19 09:39:30;;;;;;;;;;;;;;;20.81;50.50;99951.75;108303;1285;21980;-67
2023/04/19 09:41:57;;;;;;;;;;;;;;;20.77;50.64;99954.98;108258;1284;21970;-69
2023/04/19 09:44:22;;;;;;;;;;;;;;;20.74;50.83;99954.11;108075;1284;21981;-68
2023/04/19 09:46:50;;;;;;;;;;;;;;;20.73;51.08;99957.23;108127;1285;21986;-68
2023/04/19 09:49:19;;;;;;;;;;;;;;;20.70;51.30;99953.80;108313;1285;21985;-68
2023/04/19 09:51:48;;;;;;;;;;;;;;;20.68;51.50;99951.96;108178;1285;22250;-63
2023/04/19 09:54:15;;;;;;;;;;;;;;;20.68;51.83;99950.60;108302;1285;21977;-66
2023/04/19 09:56:40;;;;;;;;;;;;;;;20.66;52.07;99950.51;108097;1285;21978;-64
2023/04/19 09:59:06;;;;;;;;;;;;;;;20.65;52.27;99950.11;108104;1285;21966;-66
2023/04/19 10:01:36;;;;;;;;;;;;;;;20.65;52.40;99950.22;108098;1285;21968;-66
2023/04/19 10:04:03;;;;;;;;;;;;;;;20.62;52.38;99948.98;108089;1285;22007;-65
2023/04/19 10:06:28;;;;;;;;;;;;;;;20.57;52.45;99950.84;108086;1285;21967;-66
2023/04/19 10:08:57;;;;;;;;;;;;;;;20.53;52.65;99948.97;108116;1285;21971;-65
2023/04/19 10:11:24;;;;;;;;;;;;;;;20.49;52.69;99948.14;108123;1285;21966;-65
2023/04/19 10:13:49;;;;;;;;;;;;;;;20.47;52.91;99947.88;108135;1285;21977;-66
2023/04/19 10:16:15;;;;;;;;;;;;;;;20.47;53.14;99948.61;108069;1285;22183;-66
2023/04/19 10:18:41;;;;;;;;;;;;;;;20.48;53.39;99946.04;108140;1285;22008;-66
2023/04/19 10:21:06;;;;;;;;;;;;;;;20.51;53.69;99947.15;108140;1284;22008;-66
2023/04/19 10:23:32;;;;;;;;;;;;;;;20.53;53.91;99944.35;108069;1285;21967;-66
2023/04/19 10:25:58;;;;;;;;;;;;;;;20.57;54.09;99945.52;108174;1285;21969;-67
2023/04/19 10:28:24;;;;;;;;;;;;;;;20.61;54.47;99944.20;108085;1285;22512;-66
2023/04/19 10:30:52;;;;;;;;;;;;;;;20.63;54.57;99945.17;108066;1285;21973;-64
2023/04/19 10:33:25;;;;;;;;;;;;;;;20.64;54.96;99940.79;108087;1285;22140;-66
2023/04/19 10:35:51;;;;;;;;;;;;;;;20.62;54.88;99938.95;108182;1285;21975;-66
2023/04/19 10:38:17;;;;;;;;;;;;;;;20.60;55.00;99939.96;108136;1285;21989;-63
2023/04/19 10:40:55;;;;;;;;;;;;;;;20.56;55.13;99940.77;107932;1285;210104;-67
2023/04/19 10:43:24;;;;;;;;;;;;;;;20.56;55.34;99941.14;108219;1285;21972;-66
2023/04/19 10:45:50;;;;;;;;;;;;;;;20.54;55.47;99940.02;108191;1285;22015;-65
2023/04/19 10:48:25;;;;;;;;;;;;;;;20.51;55.64;99941.10;108276;1281;21967;-62
2023/04/19 10:50:57;;;;;;;;;;;;;;;20.41;55.34;99937.02;108098;1285;22439;-62
2023/04/19 10:53:41;;;;;;;;;;;;;;;20.31;55.21;99939.41;108061;1285;21976;-64
2023/04/19 10:56:06;;;;;;;;;;;;;;;20.26;55.65;99940.41;108140;1285;22009;-65
2023/04/19 10:58:32;;;;;;;;;;;;;;;20.24;55.94;99938.27;108079;1285;21976;-65
2023/04/19 11:01:17;;;;;;;;;;;;;;;20.19;56.21;99936.89;108109;1285;23602;-65
2023/04/19 11:03:43;;;;;;;;;;;;;;;20.17;56.37;99936.52;108139;1285;21966;-62
2023/04/19 11:06:20;;;;;;;;;;;;;;;20.14;56.72;99936.35;108059;1284;22091;-65
2023/04/19 11:08:46;;;;;;;;;;;;;;;20.14;56.67;99935.06;108110;1285;21987;-66
2023/04/19 11:11:12;;;;;;;;;;;;;;;20.19;57.02;99934.42;108096;1285;21975;-62
2023/04/19 11:13:38;;;;;;;;;;;;;;;20.23;56.85;99942.54;108211;1285;21969;-63
2023/04/19 11:16:07;;;;;;;;;;;;;;;20.25;56.91;99940.31;108146;1283;21967;-65
2023/04/19 11:18:32;;;;;;;;;;;;;;;20.27;57.00;99943.23;108159;1285;21976;-65
2023/04/19 11:21:00;;;;;;;;;;;;;;;20.29;56.98;99943.48;108059;1281;21975;-62
2023/04/19 11:23:26;;;;;;;;;;;;;;;20.28;57.26;99946.74;108083;1284;22221;-62
2023/04/19 11:25:52;;;;;;;;;;;;;;;20.23;57.36;99946.14;108064;1285;21969;-62
2023/04/19 11:28:17;;;;;;;;;;;;;;;20.19;57.46;99948.13;108085;1285;23386;-64
2023/04/19 11:30:43;;;;;;;;;;;;;;;20.23;57.52;99948.13;108151;1276;21975;-62
2023/04/19 11:33:10;;;;;;;;;;;;;;;20.26;57.89;99948.11;108199;1284;21969;-64
2023/04/19 11:35:35;;;;;;;;;;;;;;;20.28;57.96;99941.59;108139;1285;22011;-65
2023/04/19 11:38:01;;;;;;;;;;;;;;;20.30;58.33;99933.05;108102;1284;21970;-62
2023/04/19 11:40:27;;;;;;;;;;;;;;;20.33;58.42;99931.26;108126;1285;21967;-62
2023/04/19 11:42:53;;;;;;;;;;;;;;;20.36;58.66;99936.06;108154;1285;21980;-64
2023/04/19 11:45:28;;;;;;;;;;;;;;;20.39;58.61;99936.62;108102;1285;21977;-64
2023/04/19 11:47:54;;;;;;;;;;;;;;;20.44;58.50;99934.36;108088;1284;21971;-66
2023/04/19 11:50:38;;;;;;;;;;;;;;;20.49;58.55;99931.73;108257;1283;21965;-66
2023/04/19 11:53:15;;;;;;;;;;;;;;;20.52;58.96;99926.56;108263;1285;22600;-62
2023/04/19 11:55:41;;;;;;;;;;;;;;;20.53;59.34;99926.34;108154;1285;21974;-65
2023/04/19 11:58:08;;;;;;;;;;;;;;;20.53;59.48;99926.70;108121;1285;21988;-64
2023/04/19 12:00:34;;;;;;;;;;;;;;;20.53;59.42;99927.79;108081;1285;24198;-66
2023/04/19 12:03:00;;;;;;;;;;;;;;;20.55;59.59;99924.64;108062;1285;21967;-63
2023/04/19 12:05:26;;;;;;;;;;;;;;;20.56;59.75;99924.03;108145;1285;21983;-66
2023/04/19 12:08:07;;;;;;;;;;;;;;;20.57;59.81;99919.84;108156;1284;21967;-66
2023/04/19 12:10:33;;;;;;;;;;;;;;;20.58;59.78;99916.05;108139;1284;21983;-66
2023/04/19 12:12:58;;;;;;;;;;;;;;;20.60;59.77;99915.95;108187;1285;21970;-61
2023/04/19 12:15:39;;;;;;;;;;;;;;;20.61;59.68;99915.52;108073;1285;24385;-67
2023/04/19 12:18:05;;;;;;;;;;;;;;;20.64;59.49;99914.29;108065;1285;21969;-63
2023/04/19 12:20:34;;;;;;;;;;;;;;;20.65;59.68;99914.00;108054;1281;21972;-62
2023/04/19 12:23:01;;;;;;;;;;;;;;;20.68;59.50;99920.11;108114;1285;21972;-62
2023/04/19 12:25:30;;;;;;;;;;;;;;;20.68;59.12;99919.05;108087;1285;21979;-63
2023/04/19 12:27:56;;;;;;;;;;;;;;;20.65;59.01;99917.20;108173;1283;21963;-61
2023/04/19 12:30:21;;;;;;;;;;;;;;;20.62;58.80;99922.40;108172;1285;22125;-67